KGCC/GCC METAR and TAF weather

Enter ICAO airport designator
Station Type Date Time Source
KGCC METAR 2019/02/16 18:06 UTC NOAA

KGCC 161806Z AUTO 34017KT 10SM SCT018 BKN070 M02/M06 A2956 RMK AO2 T10171056


Station Type Date Time Source
KGCC Decoded METAR 2019/02/16 18:06 UTC NOAA

GILLETTE-CAMPBELL CTY AIRPORT , WY, United States (KGCC) 44-20N 105-33W 1320M
Feb 16, 2019 - 01:06 PM EST / 2019.02.16 1806 UTC
Wind: from the NNW (340 degrees) at 20 MPH (17 KT):0
Visibility: 10 mile(s):0
Sky conditions: mostly cloudy
Temperature: 28.9 F (-1.7 C)
Windchill: 15 F (-9 C):1
Dew Point: 21.9 F (-5.6 C)
Relative Humidity: 74%
Pressure (altimeter): 29.56 in. Hg (1001 hPa)
ob: KGCC 161806Z AUTO 34017KT 10SM SCT018 BKN070 M02/M06 A2956 RMK AO2 T10171056
cycle: 18

Station Type Date Time Source
KGCC TAF 2019/02/16 18:34 UTC NOAA

TAF KGCC 161732Z 1618/1718 33015KT 4SM -SN OVC025
TEMPO 1618/1622 2SM -SN BKN015
FM162200 33016G26KT 5SM -SN SCT015 BKN025
FM170200 33010KT P6SM -SN OVC010


Example: see airport list